sensor_id;sensor_type;location;lat;lon;timestamp;pressure;altitude;pressure_sealevel;temperature;humidity
76024;BME280;64719;52.124;6.226;2023-02-28T00:01:13;103267.09;;;0.79;86.10
76024;BME280;64719;52.124;6.226;2023-02-28T00:03:40;103269.66;;;0.80;86.87
76024;BME280;64719;52.124;6.226;2023-02-28T00:06:07;103269.44;;;0.83;86.77
76024;BME280;64719;52.124;6.226;2023-02-28T00:08:36;103267.53;;;0.85;86.17
76024;BME280;64719;52.124;6.226;2023-02-28T00:11:03;103263.06;;;0.86;86.35
76024;BME280;64719;52.124;6.226;2023-02-28T00:13:30;103261.63;;;0.93;85.99
76024;BME280;64719;52.124;6.226;2023-02-28T00:16:00;103260.56;;;0.95;85.76
76024;BME280;64719;52.124;6.226;2023-02-28T00:18:27;103260.34;;;0.98;85.64
76024;BME280;64719;52.124;6.226;2023-02-28T00:20:54;103264.63;;;1.01;85.97
76024;BME280;64719;52.124;6.226;2023-02-28T00:23:20;103259.78;;;1.06;85.86
76024;BME280;64719;52.124;6.226;2023-02-28T00:25:48;103258.19;;;1.03;85.55
76024;BME280;64719;52.124;6.226;2023-02-28T00:28:16;103259.06;;;1.04;85.90
76024;BME280;64719;52.124;6.226;2023-02-28T00:30:42;103261.63;;;1.05;85.77
76024;BME280;64719;52.124;6.226;2023-02-28T00:33:09;103263.44;;;1.05;85.79
76024;BME280;64719;52.124;6.226;2023-02-28T00:35:35;103254.44;;;1.06;85.84
76024;BME280;64719;52.124;6.226;2023-02-28T00:38:02;103272.94;;;1.09;85.70
76024;BME280;64719;52.124;6.226;2023-02-28T00:40:28;103260.53;;;1.08;85.86
76024;BME280;64719;52.124;6.226;2023-02-28T00:42:56;103260.31;;;1.11;85.57
76024;BME280;64719;52.124;6.226;2023-02-28T00:45:23;103255.06;;;1.09;85.98
76024;BME280;64719;52.124;6.226;2023-02-28T00:47:49;103264.69;;;1.12;85.63
76024;BME280;64719;52.124;6.226;2023-02-28T00:50:16;103263.00;;;1.11;85.40
76024;BME280;64719;52.124;6.226;2023-02-28T00:52:43;103255.72;;;1.13;85.43
76024;BME280;64719;52.124;6.226;2023-02-28T00:55:09;103253.88;;;1.13;85.29
76024;BME280;64719;52.124;6.226;2023-02-28T00:57:36;103257.53;;;1.12;85.19
76024;BME280;64719;52.124;6.226;2023-02-28T01:00:05;103252.06;;;1.14;85.28
76024;BME280;64719;52.124;6.226;2023-02-28T01:02:33;103239.03;;;1.09;85.22
76024;BME280;64719;52.124;6.226;2023-02-28T01:04:59;103262.66;;;1.15;85.34
76024;BME280;64719;52.124;6.226;2023-02-28T01:07:26;103264.13;;;1.19;85.40
76024;BME280;64719;52.124;6.226;2023-02-28T01:09:52;103259.63;;;1.20;85.12
76024;BME280;64719;52.124;6.226;2023-02-28T01:12:19;103263.78;;;1.24;85.09
76024;BME280;64719;52.124;6.226;2023-02-28T01:14:45;103262.19;;;1.21;85.02
76024;BME280;64719;52.124;6.226;2023-02-28T01:17:13;103255.03;;;1.22;85.00
76024;BME280;64719;52.124;6.226;2023-02-28T01:19:40;103261.22;;;1.22;84.70
76024;BME280;64719;52.124;6.226;2023-02-28T01:22:06;103259.19;;;1.26;85.03
76024;BME280;64719;52.124;6.226;2023-02-28T01:24:33;103251.16;;;1.26;84.72
76024;BME280;64719;52.124;6.226;2023-02-28T01:26:59;103257.50;;;1.25;85.02
76024;BME280;64719;52.124;6.226;2023-02-28T01:29:26;103256.53;;;1.26;85.07
76024;BME280;64719;52.124;6.226;2023-02-28T01:31:52;103256.53;;;1.26;84.54
76024;BME280;64719;52.124;6.226;2023-02-28T01:34:20;103257.50;;;1.25;85.16
76024;BME280;64719;52.124;6.226;2023-02-28T01:36:47;103262.72;;;1.26;85.07
76024;BME280;64719;52.124;6.226;2023-02-28T01:39:13;103256.63;;;1.24;85.26
76024;BME280;64719;52.124;6.226;2023-02-28T01:41:40;103258.31;;;1.25;84.74
76024;BME280;64719;52.124;6.226;2023-02-28T01:44:53;103254.81;;;1.25;85.39
76024;BME280;64719;52.124;6.226;2023-02-28T01:46:53;103253.97;;;1.24;85.08
76024;BME280;64719;52.124;6.226;2023-02-28T01:49:21;103253.84;;;1.26;84.98
76024;BME280;64719;52.124;6.226;2023-02-28T01:51:50;103250.19;;;1.27;85.22
76024;BME280;64719;52.124;6.226;2023-02-28T01:54:21;103252.16;;;1.25;84.92
76024;BME280;64719;52.124;6.226;2023-02-28T01:56:52;103249.47;;;1.25;85.38
76024;BME280;64719;52.124;6.226;2023-02-28T01:59:25;103251.28;;;1.24;85.10
76024;BME280;64719;52.124;6.226;2023-02-28T02:01:53;103253.97;;;1.24;85.21
76024;BME280;64719;52.124;6.226;2023-02-28T02:04:23;103251.16;;;1.26;85.20
76024;BME280;64719;52.124;6.226;2023-02-28T02:06:51;103251.28;;;1.24;85.40
76024;BME280;64719;52.124;6.226;2023-02-28T02:09:18;103250.19;;;1.27;85.42
76024;BME280;64719;52.124;6.226;2023-02-28T02:11:45;103252.78;;;1.28;85.48
76024;BME280;64719;52.124;6.226;2023-02-28T02:17:14;103248.63;;;1.24;85.48
76024;BME280;64719;52.124;6.226;2023-02-28T02:20:21;103256.53;;;1.26;85.24
76024;BME280;64719;52.124;6.226;2023-02-28T02:23:20;103240.47;;;1.26;85.35
76024;BME280;64719;52.124;6.226;2023-02-28T02:25:54;103243.25;;;1.24;85.50
76024;BME280;64719;52.124;6.226;2023-02-28T02:28:36;103245.94;;;1.24;85.27
76024;BME280;64719;52.124;6.226;2023-02-28T02:31:22;103248.63;;;1.24;85.43
76024;BME280;64719;52.124;6.226;2023-02-28T02:34:13;103252.16;;;1.25;85.23
76024;BME280;64719;52.124;6.226;2023-02-28T02:36:48;103252.88;;;1.27;84.58
76024;BME280;64719;52.124;6.226;2023-02-28T02:39:20;103250.41;;;1.24;84.75
76024;BME280;64719;52.124;6.226;2023-02-28T02:41:52;103252.97;;;1.25;85.09
76024;BME280;64719;52.124;6.226;2023-02-28T02:44:22;103257.50;;;1.25;84.53
76024;BME280;64719;52.124;6.226;2023-02-28T02:46:52;103252.88;;;1.27;84.14
76024;BME280;64719;52.124;6.226;2023-02-28T02:49:24;103249.13;;;1.29;83.80
76024;BME280;64719;52.124;6.226;2023-02-28T02:51:53;103261.53;;;1.30;83.15
76024;BME280;64719;52.124;6.226;2023-02-28T02:54:24;103256.06;;;1.32;83.16
76024;BME280;64719;52.124;6.226;2023-02-28T02:56:57;103255.13;;;1.33;83.23
76024;BME280;64719;52.124;6.226;2023-02-28T02:59:26;103257.91;;;1.31;82.80
76024;BME280;64719;52.124;6.226;2023-02-28T03:01:56;103251.81;;;1.29;83.41
76024;BME280;64719;52.124;6.226;2023-02-28T03:04:28;103258.13;;;1.28;82.93
76024;BME280;64719;52.124;6.226;2023-02-28T03:06:56;103259.84;;;1.29;83.01
76024;BME280;64719;52.124;6.226;2023-02-28T03:09:23;103257.28;;;1.28;83.46
76024;BME280;64719;52.124;6.226;2023-02-28T03:11:52;103252.88;;;1.27;82.97
76024;BME280;64719;52.124;6.226;2023-02-28T03:14:26;103260.06;;;1.26;83.25
76024;BME280;64719;52.124;6.226;2023-02-28T03:17:17;103258.13;;;1.28;83.71
76024;BME280;64719;52.124;6.226;2023-02-28T03:19:54;103259.94;;;1.28;83.47
76024;BME280;64719;52.124;6.226;2023-02-28T03:22:37;103253.97;;;1.24;83.10
76024;BME280;64719;52.124;6.226;2023-02-28T03:25:09;103259.41;;;1.23;83.42
76024;BME280;64719;52.124;6.226;2023-02-28T03:27:42;103261.22;;;1.22;82.57
76024;BME280;64719;52.124;6.226;2023-02-28T03:30:17;103259.31;;;1.24;82.90
76024;BME280;64719;52.124;6.226;2023-02-28T03:32:48;103263.69;;;1.25;82.65
76024;BME280;64719;52.124;6.226;2023-02-28T03:35:21;103267.84;;;1.29;83.08
76024;BME280;64719;52.124;6.226;2023-02-28T03:37:52;103255.53;;;1.27;82.56
76024;BME280;64719;52.124;6.226;2023-02-28T03:40:22;103260.28;;;1.23;82.40
76024;BME280;64719;52.124;6.226;2023-02-28T03:42:52;103251.72;;;1.18;82.69
76024;BME280;64719;52.124;6.226;2023-02-28T03:45:25;103253.44;;;1.19;82.67
76024;BME280;64719;52.124;6.226;2023-02-28T03:47:54;103257.84;;;1.20;82.84
76024;BME280;64719;52.124;6.226;2023-02-28T03:50:25;103249.28;;;1.15;82.87
76024;BME280;64719;52.124;6.226;2023-02-28T03:52:57;103241.41;;;1.01;83.24
76024;BME280;64719;52.124;6.226;2023-02-28T03:55:28;103244.06;;;1.01;84.27
76024;BME280;64719;52.124;6.226;2023-02-28T03:57:59;103239.47;;;1.03;83.90
76024;BME280;64719;52.124;6.226;2023-02-28T04:00:31;103244.59;;;1.06;84.25
76024;BME280;64719;52.124;6.226;2023-02-28T04:02:58;103234.34;;;1.13;83.52
76024;BME280;64719;52.124;6.226;2023-02-28T04:05:27;103236.03;;;1.14;83.64
76024;BME280;64719;52.124;6.226;2023-02-28T04:07:53;103243.50;;;1.21;83.10
76024;BME280;64719;52.124;6.226;2023-02-28T04:10:20;103248.72;;;1.23;83.17
76024;BME280;64719;52.124;6.226;2023-02-28T04:12:47;103247.84;;;1.22;82.66
76024;BME280;64719;52.124;6.226;2023-02-28T04:15:13;103248.72;;;1.23;82.38
76024;BME280;64719;52.124;6.226;2023-02-28T04:17:40;103250.41;;;1.24;82.50
76024;BME280;64719;52.124;6.226;2023-02-28T04:20:07;103235.56;;;1.20;82.83
76024;BME280;64719;52.124;6.226;2023-02-28T04:22:36;103240.50;;;1.13;82.75
76024;BME280;64719;52.124;6.226;2023-02-28T04:25:04;103249.06;;;1.18;82.56
76024;BME280;64719;52.124;6.226;2023-02-28T04:27:31;103245.28;;;1.21;82.69
76024;BME280;64719;52.124;6.226;2023-02-28T04:29:58;103248.94;;;1.20;82.41
76024;BME280;64719;52.124;6.226;2023-02-28T04:32:24;103240.28;;;1.16;82.49
76024;BME280;64719;52.124;6.226;2023-02-28T04:34:51;103239.22;;;1.19;82.00
76024;BME280;64719;52.124;6.226;2023-02-28T04:37:17;103227.25;;;1.12;82.97
76024;BME280;64719;52.124;6.226;2023-02-28T04:39:45;103228.03;;;1.01;83.48
76024;BME280;64719;52.124;6.226;2023-02-28T04:42:12;103231.03;;;1.09;83.23
76024;BME280;64719;52.124;6.226;2023-02-28T04:44:39;103234.78;;;1.07;83.20
76024;BME280;64719;52.124;6.226;2023-02-28T04:47:05;103237.56;;;1.05;83.55
76024;BME280;64719;52.124;6.226;2023-02-28T04:49:32;103240.00;;;1.08;83.42
76024;BME280;64719;52.124;6.226;2023-02-28T04:51:58;103237.44;;;1.07;83.55
76024;BME280;64719;52.124;6.226;2023-02-28T04:54:25;103239.38;;;1.05;83.74
76024;BME280;64719;52.124;6.226;2023-02-28T04:56:53;103235.94;;;1.03;84.20
76024;BME280;64719;52.124;6.226;2023-02-28T04:59:20;103241.81;;;1.08;83.23
76024;BME280;64719;52.124;6.226;2023-02-28T05:01:47;103237.22;;;1.10;82.95
76024;BME280;64719;52.124;6.226;2023-02-28T05:04:15;103234.44;;;1.11;83.10
76024;BME280;64719;52.124;6.226;2023-02-28T05:06:41;103240.84;;;1.09;82.96
76024;BME280;64719;52.124;6.226;2023-02-28T05:09:08;103244.16;;;1.12;82.71
76024;BME280;64719;52.124;6.226;2023-02-28T05:11:36;103238.81;;;1.12;82.52
76024;BME280;64719;52.124;6.226;2023-02-28T05:14:07;103238.28;;;1.07;82.76
76024;BME280;64719;52.124;6.226;2023-02-28T05:16:35;103244.81;;;1.03;83.04
76024;BME280;64719;52.124;6.226;2023-02-28T05:19:02;103253.81;;;1.02;83.33
76024;BME280;64719;52.124;6.226;2023-02-28T05:21:30;103257.09;;;1.06;83.26
76024;BME280;64719;52.124;6.226;2023-02-28T05:23:59;103253.72;;;1.04;83.20
76024;BME280;64719;52.124;6.226;2023-02-28T05:26:27;103249.66;;;0.98;82.90
76024;BME280;64719;52.124;6.226;2023-02-28T05:28:54;103254.72;;;0.90;83.44
76024;BME280;64719;52.124;6.226;2023-02-28T05:31:22;103258.75;;;0.96;83.84
76024;BME280;64719;52.124;6.226;2023-02-28T05:33:49;103247.84;;;0.99;83.83
76024;BME280;64719;52.124;6.226;2023-02-28T05:36:15;103243.81;;;0.93;83.39
76024;BME280;64719;52.124;6.226;2023-02-28T05:38:42;103251.94;;;0.92;84.51
76024;BME280;64719;52.124;6.226;2023-02-28T05:41:10;103263.13;;;0.97;84.47
76024;BME280;64719;52.124;6.226;2023-02-28T05:43:37;103263.13;;;0.97;84.01
76024;BME280;64719;52.124;6.226;2023-02-28T05:46:05;103262.28;;;0.96;84.69
76024;BME280;64719;52.124;6.226;2023-02-28T05:48:33;103259.50;;;0.98;85.22
76024;BME280;64719;52.124;6.226;2023-02-28T05:51:00;103248.28;;;0.93;85.29
76024;BME280;64719;52.124;6.226;2023-02-28T05:53:28;103256.41;;;0.91;85.08
76024;BME280;64719;52.124;6.226;2023-02-28T05:55:54;103255.03;;;0.86;84.74
76024;BME280;64719;52.124;6.226;2023-02-28T05:58:21;103271.19;;;0.84;84.66
76024;BME280;64719;52.124;6.226;2023-02-28T06:00:48;103269.78;;;0.79;84.82
76024;BME280;64719;52.124;6.226;2023-02-28T06:03:15;103272.06;;;0.72;85.41
76024;BME280;64719;52.124;6.226;2023-02-28T06:05:43;103265.75;;;0.61;86.06
76024;BME280;64719;52.124;6.226;2023-02-28T06:08:09;103272.81;;;0.62;86.03
76024;BME280;64719;52.124;6.226;2023-02-28T06:10:36;103281.34;;;0.67;86.33
76024;BME280;64719;52.124;6.226;2023-02-28T06:13:03;103276.97;;;0.66;86.27
76024;BME280;64719;52.124;6.226;2023-02-28T06:15:30;103285.75;;;0.68;86.08
76024;BME280;64719;52.124;6.226;2023-02-28T06:17:57;103280.63;;;0.65;85.93
76024;BME280;64719;52.124;6.226;2023-02-28T06:20:25;103288.31;;;0.69;86.24
76024;BME280;64719;52.124;6.226;2023-02-28T06:22:55;103280.06;;;0.72;85.71
76024;BME280;64719;52.124;6.226;2023-02-28T06:25:24;103282.75;;;0.72;86.42
76024;BME280;64719;52.124;6.226;2023-02-28T06:27:50;103278.78;;;0.65;86.01
76024;BME280;64719;52.124;6.226;2023-02-28T06:30:17;103284.97;;;0.78;86.00
76024;BME280;64719;52.124;6.226;2023-02-28T06:32:48;103296.72;;;0.76;85.34
76024;BME280;64719;52.124;6.226;2023-02-28T06:35:15;103298.13;;;0.69;85.92
76024;BME280;64719;52.124;6.226;2023-02-28T06:37:42;103301.97;;;0.65;85.96
76024;BME280;64719;52.124;6.226;2023-02-28T06:40:11;103304.00;;;0.74;86.69
76024;BME280;64719;52.124;6.226;2023-02-28T06:42:39;103309.03;;;0.78;85.77
76024;BME280;64719;52.124;6.226;2023-02-28T06:45:06;103306.97;;;0.82;85.76
76024;BME280;64719;52.124;6.226;2023-02-28T06:47:34;103315.75;;;0.84;86.37
76024;BME280;64719;52.124;6.226;2023-02-28T06:50:00;103308.59;;;0.84;86.11
76024;BME280;64719;52.124;6.226;2023-02-28T06:52:27;103306.22;;;0.92;86.55
76024;BME280;64719;52.124;6.226;2023-02-28T06:54:54;103317.53;;;0.96;86.96
76024;BME280;64719;52.124;6.226;2023-02-28T06:57:27;103306.53;;;1.00;86.37
76024;BME280;64719;52.124;6.226;2023-02-28T06:59:56;103309.31;;;0.99;85.42
76024;BME280;64719;52.124;6.226;2023-02-28T07:02:23;103320.09;;;1.10;85.20
76024;BME280;64719;52.124;6.226;2023-02-28T07:04:49;103316.53;;;1.22;84.05
76024;BME280;64719;52.124;6.226;2023-02-28T07:07:16;103317.34;;;1.35;84.35
76024;BME280;64719;52.124;6.226;2023-02-28T07:09:42;103318.31;;;1.46;83.90
76024;BME280;64719;52.124;6.226;2023-02-28T07:12:09;103314.94;;;1.55;82.44
76024;BME280;64719;52.124;6.226;2023-02-28T07:14:37;103322.41;;;1.63;82.65
76024;BME280;64719;52.124;6.226;2023-02-28T07:17:04;103324.41;;;1.72;82.23
76024;BME280;64719;52.124;6.226;2023-02-28T07:19:32;103327.13;;;1.83;81.02
76024;BME280;64719;52.124;6.226;2023-02-28T07:21:59;103321.47;;;1.99;79.80
76024;BME280;64719;52.124;6.226;2023-02-28T07:24:26;103329.81;;;2.18;79.34
76024;BME280;64719;52.124;6.226;2023-02-28T07:26:53;103331.09;;;2.36;77.94
76024;BME280;64719;52.124;6.226;2023-02-28T07:29:20;103330.72;;;2.40;76.43
76024;BME280;64719;52.124;6.226;2023-02-28T07:31:47;103337.97;;;2.62;76.18
76024;BME280;64719;52.124;6.226;2023-02-28T07:34:15;103338.25;;;2.70;75.11
76024;BME280;64719;52.124;6.226;2023-02-28T07:36:42;103328.38;;;2.81;74.74
76024;BME280;64719;52.124;6.226;2023-02-28T07:39:09;103342.88;;;2.79;74.05
76024;BME280;64719;52.124;6.226;2023-02-28T07:41:35;103335.31;;;2.73;74.42
76024;BME280;64719;52.124;6.226;2023-02-28T07:44:08;103320.69;;;3.21;73.20
76024;BME280;64719;52.124;6.226;2023-02-28T07:46:35;103330.72;;;3.72;71.24
76024;BME280;64719;52.124;6.226;2023-02-28T07:49:03;103330.88;;;4.03;68.70
76024;BME280;64719;52.124;6.226;2023-02-28T07:51:30;103341.72;;;6.59;64.83
76024;BME280;64719;52.124;6.226;2023-02-28T07:53:57;103341.84;;;9.74;55.49
76024;BME280;64719;52.124;6.226;2023-02-28T07:56:23;103336.19;;;11.36;48.89
76024;BME280;64719;52.124;6.226;2023-02-28T07:58:50;103333.25;;;11.53;44.37
76024;BME280;64719;52.124;6.226;2023-02-28T08:01:16;103339.91;;;12.49;43.25
76024;BME280;64719;52.124;6.226;2023-02-28T08:03:44;103341.91;;;12.55;41.58
76024;BME280;64719;52.124;6.226;2023-02-28T08:06:17;103344.50;;;14.44;39.93
76024;BME280;64719;52.124;6.226;2023-02-28T08:08:44;103345.63;;;14.77;37.01
76024;BME280;64719;52.124;6.226;2023-02-28T08:11:11;103344.50;;;15.27;33.39
76024;BME280;64719;52.124;6.226;2023-02-28T08:13:37;103342.81;;;14.07;35.18
76024;BME280;64719;52.124;6.226;2023-02-28T08:16:04;103352.59;;;14.80;33.03
76024;BME280;64719;52.124;6.226;2023-02-28T08:18:32;103340.91;;;14.64;30.79
76024;BME280;64719;52.124;6.226;2023-02-28T08:20:59;103354.19;;;15.63;30.79
76024;BME280;64719;52.124;6.226;2023-02-28T08:23:26;103339.63;;;13.83;30.21
76024;BME280;64719;52.124;6.226;2023-02-28T08:25:53;103339.38;;;14.34;30.47
76024;BME280;64719;52.124;6.226;2023-02-28T08:28:20;103347.19;;;14.58;28.37
76024;BME280;64719;52.124;6.226;2023-02-28T08:30:47;103347.19;;;14.02;27.85
76024;BME280;64719;52.124;6.226;2023-02-28T08:33:14;103342.50;;;14.52;26.64
76024;BME280;64719;52.124;6.226;2023-02-28T08:35:40;103343.53;;;15.07;26.72
76024;BME280;64719;52.124;6.226;2023-02-28T08:38:07;103341.03;;;13.79;30.18
76024;BME280;64719;52.124;6.226;2023-02-28T08:40:35;103347.69;;;13.91;25.16
76024;BME280;64719;52.124;6.226;2023-02-28T08:43:01;103349.22;;;13.79;26.63
76024;BME280;64719;52.124;6.226;2023-02-28T08:45:28;103344.97;;;15.71;25.26
76024;BME280;64719;52.124;6.226;2023-02-28T08:47:54;103346.78;;;17.48;24.19
76024;BME280;64719;52.124;6.226;2023-02-28T08:50:21;103346.41;;;15.60;24.74
76024;BME280;64719;52.124;6.226;2023-02-28T08:52:48;103344.50;;;16.34;23.82
76024;BME280;64719;52.124;6.226;2023-02-28T08:55:14;103338.34;;;14.35;23.92
76024;BME280;64719;52.124;6.226;2023-02-28T08:57:42;103332.09;;;12.31;26.25
76024;BME280;64719;52.124;6.226;2023-02-28T09:00:10;103335.75;;;14.13;25.34
76024;BME280;64719;52.124;6.226;2023-02-28T09:02:38;103339.44;;;15.58;24.01
76024;BME280;64719;52.124;6.226;2023-02-28T09:05:06;103344.34;;;15.69;23.32
76024;BME280;64719;52.124;6.226;2023-02-28T09:07:32;103339.91;;;16.48;22.25
76024;BME280;64719;52.124;6.226;2023-02-28T09:09:59;103338.88;;;15.01;22.85
76024;BME280;64719;52.124;6.226;2023-02-28T09:12:26;103340.66;;;15.96;21.97
76024;BME280;64719;52.124;6.226;2023-02-28T09:14:55;103342.78;;;17.31;21.61
76024;BME280;64719;52.124;6.226;2023-02-28T09:17:21;103340.63;;;18.03;20.92
76024;BME280;64719;52.124;6.226;2023-02-28T09:19:48;103340.88;;;18.26;20.43
76024;BME280;64719;52.124;6.226;2023-02-28T09:22:15;103350.75;;;17.58;20.42
76024;BME280;64719;52.124;6.226;2023-02-28T09:24:41;103341.19;;;16.52;21.36
76024;BME280;64719;52.124;6.226;2023-02-28T09:27:09;103335.19;;;16.09;20.03
76024;BME280;64719;52.124;6.226;2023-02-28T09:29:35;103345.72;;;17.36;18.86
76024;BME280;64719;52.124;6.226;2023-02-28T09:32:04;103347.75;;;16.64;21.10
76024;BME280;64719;52.124;6.226;2023-02-28T09:34:33;103335.59;;;17.36;19.47
76024;BME280;64719;52.124;6.226;2023-02-28T09:36:59;103339.94;;;16.61;20.00
76024;BME280;64719;52.124;6.226;2023-02-28T09:39:26;103333.09;;;17.28;19.03
76024;BME280;64719;52.124;6.226;2023-02-28T09:41:56;103337.09;;;16.28;20.23
76024;BME280;64719;52.124;6.226;2023-02-28T09:44:28;103332.94;;;16.58;20.44
76024;BME280;64719;52.124;6.226;2023-02-28T09:46:57;103332.13;;;17.67;20.13
76024;BME280;64719;52.124;6.226;2023-02-28T09:49:33;103340.22;;;17.49;18.83
76024;BME280;64719;52.124;6.226;2023-02-28T09:52:03;103339.53;;;15.77;18.63
76024;BME280;64719;52.124;6.226;2023-02-28T09:54:32;103333.91;;;17.48;18.32
76024;BME280;64719;52.124;6.226;2023-02-28T09:57:02;103336.53;;;15.66;19.54
76024;BME280;64719;52.124;6.226;2023-02-28T09:59:56;103331.38;;;17.91;17.99
76024;BME280;64719;52.124;6.226;2023-02-28T10:02:54;103330.06;;;17.43;18.78
76024;BME280;64719;52.124;6.226;2023-02-28T10:05:27;103327.91;;;17.71;18.43
76024;BME280;64719;52.124;6.226;2023-02-28T10:08:02;103326.19;;;17.00;19.46
76024;BME280;64719;52.124;6.226;2023-02-28T10:10:32;103333.69;;;18.32;18.44
76024;BME280;64719;52.124;6.226;2023-02-28T10:13:02;103332.50;;;20.03;17.10
76024;BME280;64719;52.124;6.226;2023-02-28T10:15:32;103335.28;;;16.68;19.10
76024;BME280;64719;52.124;6.226;2023-02-28T10:18:03;103337.38;;;16.98;18.75
76024;BME280;64719;52.124;6.226;2023-02-28T10:20:34;103340.19;;;19.11;17.46
76024;BME280;64719;52.124;6.226;2023-02-28T10:23:05;103330.81;;;15.61;20.19
76024;BME280;64719;52.124;6.226;2023-02-28T10:25:37;103330.56;;;18.77;16.61
76024;BME280;64719;52.124;6.226;2023-02-28T10:28:10;103317.81;;;17.96;17.57
76024;BME280;64719;52.124;6.226;2023-02-28T10:30:40;103311.28;;;17.53;17.58
76024;BME280;64719;52.124;6.226;2023-02-28T10:33:17;103318.91;;;17.38;18.46
76024;BME280;64719;52.124;6.226;2023-02-28T10:35:46;103310.34;;;19.32;16.64
76024;BME280;64719;52.124;6.226;2023-02-28T10:38:17;103311.56;;;17.19;19.18
76024;BME280;64719;52.124;6.226;2023-02-28T10:40:44;103327.53;;;17.41;18.49
76024;BME280;64719;52.124;6.226;2023-02-28T10:43:20;103315.53;;;18.24;18.26
76024;BME280;64719;52.124;6.226;2023-02-28T10:45:59;103322.16;;;18.72;17.93
76024;BME280;64719;52.124;6.226;2023-02-28T10:48:32;103311.63;;;18.38;18.82
76024;BME280;64719;52.124;6.226;2023-02-28T10:51:01;103311.97;;;18.73;18.11
76024;BME280;64719;52.124;6.226;2023-02-28T10:53:32;103314.03;;;19.20;17.57
76024;BME280;64719;52.124;6.226;2023-02-28T10:56:01;103310.97;;;17.74;18.96
76024;BME280;64719;52.124;6.226;2023-02-28T10:58:30;103314.97;;;19.14;19.02
76024;BME280;64719;52.124;6.226;2023-02-28T11:00:58;103316.09;;;18.39;18.58
76024;BME280;64719;52.124;6.226;2023-02-28T11:03:31;103305.19;;;15.75;19.87
76024;BME280;64719;52.124;6.226;2023-02-28T11:06:03;103305.50;;;15.46;21.30
76024;BME280;64719;52.124;6.226;2023-02-28T11:08:30;103303.41;;;16.27;21.48
76024;BME280;64719;52.124;6.226;2023-02-28T11:10:58;103304.47;;;15.19;22.04
76024;BME280;64719;52.124;6.226;2023-02-28T11:13:31;103290.88;;;15.32;21.79
76024;BME280;64719;52.124;6.226;2023-02-28T11:16:00;103292.91;;;16.57;21.06
76024;BME280;64719;52.124;6.226;2023-02-28T11:18:30;103304.03;;;15.43;20.76
76024;BME280;64719;52.124;6.226;2023-02-28T11:21:02;103293.56;;;15.26;21.85
76024;BME280;64719;52.124;6.226;2023-02-28T11:23:32;103290.59;;;14.59;23.12
76024;BME280;64719;52.124;6.226;2023-02-28T11:26:02;103285.25;;;14.44;22.96
76024;BME280;64719;52.124;6.226;2023-02-28T11:28:31;103288.00;;;14.23;23.35
76024;BME280;64719;52.124;6.226;2023-02-28T11:31:15;103288.22;;;14.07;23.49
76024;BME280;64719;52.124;6.226;2023-02-28T11:33:44;103284.78;;;14.41;24.28
76024;BME280;64719;52.124;6.226;2023-02-28T11:36:18;103287.00;;;14.10;23.65
76024;BME280;64719;52.124;6.226;2023-02-28T11:38:45;103274.16;;;12.37;25.83
76024;BME280;64719;52.124;6.226;2023-02-28T11:41:25;103268.41;;;11.73;27.85
76024;BME280;64719;52.124;6.226;2023-02-28T11:44:10;103274.16;;;12.00;27.00
76024;BME280;64719;52.124;6.226;2023-02-28T11:46:43;103266.22;;;11.60;26.89
76024;BME280;64719;52.124;6.226;2023-02-28T11:49:25;103270.66;;;10.84;28.49
76024;BME280;64719;52.124;6.226;2023-02-28T11:52:00;103276.88;;;11.00;29.51
76024;BME280;64719;52.124;6.226;2023-02-28T11:54:46;103281.59;;;10.60;30.99
76024;BME280;64719;52.124;6.226;2023-02-28T11:57:30;103275.19;;;10.99;29.31
76024;BME280;64719;52.124;6.226;2023-02-28T12:00:04;103261.72;;;12.72;26.49
76024;BME280;64719;52.124;6.226;2023-02-28T12:02:42;103264.03;;;12.31;26.46
76024;BME280;64719;52.124;6.226;2023-02-28T12:05:24;103252.88;;;12.55;26.44
76024;BME280;64719;52.124;6.226;2023-02-28T12:08:04;103259.19;;;12.70;25.49
76024;BME280;64719;52.124;6.226;2023-02-28T12:10:51;103254.81;;;11.34;26.87
76024;BME280;64719;52.124;6.226;2023-02-28T12:13:24;103250.59;;;10.93;28.08
76024;BME280;64719;52.124;6.226;2023-02-28T12:19:11;103248.25;;;12.41;26.26
76024;BME280;64719;52.124;6.226;2023-02-28T12:21:52;103254.75;;;12.40;26.10
76024;BME280;64719;52.124;6.226;2023-02-28T12:24:31;103244.50;;;12.05;26.15
76024;BME280;64719;52.124;6.226;2023-02-28T12:27:05;103243.97;;;13.34;25.85
76024;BME280;64719;52.124;6.226;2023-02-28T12:29:37;103241.63;;;13.31;25.12
76024;BME280;64719;52.124;6.226;2023-02-28T12:32:12;103240.97;;;15.84;23.30
76024;BME280;64719;52.124;6.226;2023-02-28T12:34:44;103230.56;;;15.06;22.06
76024;BME280;64719;52.124;6.226;2023-02-28T12:37:16;103227.75;;;13.47;23.27
76024;BME280;64719;52.124;6.226;2023-02-28T12:39:48;103238.06;;;13.87;24.74
76024;BME280;64719;52.124;6.226;2023-02-28T12:42:22;103228.56;;;13.27;25.13
76024;BME280;64719;52.124;6.226;2023-02-28T12:44:53;103226.28;;;13.66;24.01
76024;BME280;64719;52.124;6.226;2023-02-28T12:47:21;103223.88;;;14.40;23.47
76024;BME280;64719;52.124;6.226;2023-02-28T12:49:50;103207.44;;;15.49;21.93
76024;BME280;64719;52.124;6.226;2023-02-28T12:52:23;103205.75;;;17.36;20.13
76024;BME280;64719;52.124;6.226;2023-02-28T12:54:56;103207.06;;;16.70;19.98
76024;BME280;64719;52.124;6.226;2023-02-28T12:57:32;103199.28;;;16.14;21.92
76024;BME280;64719;52.124;6.226;2023-02-28T13:00:03;103204.78;;;16.08;21.46
76024;BME280;64719;52.124;6.226;2023-02-28T13:02:58;103187.84;;;16.70;19.63
76024;BME280;64719;52.124;6.226;2023-02-28T13:05:53;103193.22;;;15.33;20.80
76024;BME280;64719;52.124;6.226;2023-02-28T13:08:35;103181.88;;;16.86;20.25
76024;BME280;64719;52.124;6.226;2023-02-28T13:11:23;103193.88;;;18.10;18.89
76024;BME280;64719;52.124;6.226;2023-02-28T13:13:57;103183.19;;;16.83;19.65
76024;BME280;64719;52.124;6.226;2023-02-28T13:16:24;103182.59;;;16.35;20.17